sensor_id;sensor_type;location;lat;lon;timestamp;temperature;humidity
32536;DHT22;18974;50.838;4.636;2022-12-20T00:01:21;12.90;99.90
32536;DHT22;18974;50.838;4.636;2022-12-20T00:03:51;13.00;99.90
32536;DHT22;18974;50.838;4.636;2022-12-20T00:06:18;12.90;99.90
32536;DHT22;18974;50.838;4.636;2022-12-20T00:08:44;13.00;99.90
32536;DHT22;18974;50.838;4.636;2022-12-20T00:11:10;13.00;99.90
32536;DHT22;18974;50.838;4.636;2022-12-20T00:13:36;13.00;99.90
32536;DHT22;18974;50.838;4.636;2022-12-20T00:16:22;12.90;99.90
32536;DHT22;18974;50.838;4.636;2022-12-20T00:18:56;12.80;99.90
32536;DHT22;18974;50.838;4.636;2022-12-20T00:21:23;12.90;99.90
32536;DHT22;18974;50.838;4.636;2022-12-20T00:23:50;12.80;99.90
32536;DHT22;18974;50.838;4.636;2022-12-20T00:26:19;12.80;99.90
32536;DHT22;18974;50.838;4.636;2022-12-20T00:28:45;12.80;99.90
32536;DHT22;18974;50.838;4.636;2022-12-20T00:31:13;12.80;99.90
32536;DHT22;18974;50.838;4.636;2022-12-20T00:33:40;12.80;99.90
32536;DHT22;18974;50.838;4.636;2022-12-20T00:36:06;12.80;99.90
32536;DHT22;18974;50.838;4.636;2022-12-20T00:38:33;12.80;99.90
32536;DHT22;18974;50.838;4.636;2022-12-20T00:41:11;12.70;99.90
32536;DHT22;18974;50.838;4.636;2022-12-20T00:43:38;12.60;99.90
32536;DHT22;18974;50.838;4.636;2022-12-20T00:46:04;12.60;99.90
32536;DHT22;18974;50.838;4.636;2022-12-20T00:48:30;12.40;99.90
32536;DHT22;18974;50.838;4.636;2022-12-20T00:51:05;12.50;99.90
32536;DHT22;18974;50.838;4.636;2022-12-20T00:53:31;12.40;99.90
32536;DHT22;18974;50.838;4.636;2022-12-20T00:55:57;12.40;99.90
32536;DHT22;18974;50.838;4.636;2022-12-20T00:58:23;12.40;99.90
32536;DHT22;18974;50.838;4.636;2022-12-20T01:00:49;12.50;99.90
32536;DHT22;18974;50.838;4.636;2022-12-20T01:03:15;12.50;99.90
32536;DHT22;18974;50.838;4.636;2022-12-20T01:05:55;12.60;99.90
32536;DHT22;18974;50.838;4.636;2022-12-20T01:08:22;12.60;99.90
32536;DHT22;18974;50.838;4.636;2022-12-20T01:11:01;12.60;99.90
32536;DHT22;18974;50.838;4.636;2022-12-20T01:13:28;12.60;99.90
32536;DHT22;18974;50.838;4.636;2022-12-20T01:15:54;12.60;99.90
32536;DHT22;18974;50.838;4.636;2022-12-20T01:18:19;12.70;99.90
32536;DHT22;18974;50.838;4.636;2022-12-20T01:20:45;12.70;99.90
32536;DHT22;18974;50.838;4.636;2022-12-20T01:23:11;12.70;99.90
32536;DHT22;18974;50.838;4.636;2022-12-20T01:25:36;12.70;99.90
32536;DHT22;18974;50.838;4.636;2022-12-20T01:28:02;12.50;99.90
32536;DHT22;18974;50.838;4.636;2022-12-20T01:30:28;12.50;99.90
32536;DHT22;18974;50.838;4.636;2022-12-20T01:32:53;12.50;99.90
32536;DHT22;18974;50.838;4.636;2022-12-20T01:35:19;12.50;99.90
32536;DHT22;18974;50.838;4.636;2022-12-20T01:37:44;12.40;99.90
32536;DHT22;18974;50.838;4.636;2022-12-20T01:40:10;12.30;99.90
32536;DHT22;18974;50.838;4.636;2022-12-20T01:42:36;12.30;99.90
32536;DHT22;18974;50.838;4.636;2022-12-20T01:45:07;12.40;99.90
32536;DHT22;18974;50.838;4.636;2022-12-20T01:47:38;12.40;99.90
32536;DHT22;18974;50.838;4.636;2022-12-20T01:50:05;12.30;99.90
32536;DHT22;18974;50.838;4.636;2022-12-20T01:52:38;12.30;99.90
32536;DHT22;18974;50.838;4.636;2022-12-20T01:55:14;12.30;99.90
32536;DHT22;18974;50.838;4.636;2022-12-20T01:57:58;12.30;99.90
32536;DHT22;18974;50.838;4.636;2022-12-20T02:00:24;12.30;99.90
32536;DHT22;18974;50.838;4.636;2022-12-20T02:02:50;12.20;99.90
32536;DHT22;18974;50.838;4.636;2022-12-20T02:05:20;12.20;99.90
32536;DHT22;18974;50.838;4.636;2022-12-20T02:07:49;12.10;99.90
32536;DHT22;18974;50.838;4.636;2022-12-20T02:10:16;12.20;99.90
32536;DHT22;18974;50.838;4.636;2022-12-20T02:12:47;12.20;99.90
32536;DHT22;18974;50.838;4.636;2022-12-20T02:15:34;12.20;99.90
32536;DHT22;18974;50.838;4.636;2022-12-20T02:18:15;12.30;99.90
32536;DHT22;18974;50.838;4.636;2022-12-20T02:26:18;12.30;99.90
32536;DHT22;18974;50.838;4.636;2022-12-20T02:31:42;12.30;99.90
32536;DHT22;18974;50.838;4.636;2022-12-20T02:34:11;12.30;99.90
32536;DHT22;18974;50.838;4.636;2022-12-20T02:36:38;12.30;99.90
32536;DHT22;18974;50.838;4.636;2022-12-20T02:39:04;12.30;99.90
32536;DHT22;18974;50.838;4.636;2022-12-20T02:41:38;12.20;99.90
32536;DHT22;18974;50.838;4.636;2022-12-20T02:44:09;12.20;99.90
32536;DHT22;18974;50.838;4.636;2022-12-20T02:46:55;12.20;99.90
32536;DHT22;18974;50.838;4.636;2022-12-20T02:49:25;12.20;99.90
32536;DHT22;18974;50.838;4.636;2022-12-20T02:51:55;12.10;99.90
32536;DHT22;18974;50.838;4.636;2022-12-20T02:54:21;12.10;99.90
32536;DHT22;18974;50.838;4.636;2022-12-20T02:56:53;12.10;99.90
32536;DHT22;18974;50.838;4.636;2022-12-20T02:59:32;12.20;99.90
32536;DHT22;18974;50.838;4.636;2022-12-20T03:02:08;12.20;99.90
32536;DHT22;18974;50.838;4.636;2022-12-20T03:04:37;12.10;99.90
32536;DHT22;18974;50.838;4.636;2022-12-20T03:07:10;12.20;99.90
32536;DHT22;18974;50.838;4.636;2022-12-20T03:09:41;12.20;99.90
32536;DHT22;18974;50.838;4.636;2022-12-20T03:12:09;12.30;99.90
32536;DHT22;18974;50.838;4.636;2022-12-20T03:14:39;12.30;99.90
32536;DHT22;18974;50.838;4.636;2022-12-20T03:17:06;12.30;99.90
32536;DHT22;18974;50.838;4.636;2022-12-20T03:19:31;12.40;99.90
32536;DHT22;18974;50.838;4.636;2022-12-20T03:21:57;12.40;99.90
32536;DHT22;18974;50.838;4.636;2022-12-20T03:24:24;12.30;99.90
32536;DHT22;18974;50.838;4.636;2022-12-20T03:26:49;12.30;99.90
32536;DHT22;18974;50.838;4.636;2022-12-20T03:29:15;12.40;99.90
32536;DHT22;18974;50.838;4.636;2022-12-20T03:31:40;12.30;99.90
32536;DHT22;18974;50.838;4.636;2022-12-20T03:34:06;12.40;99.90
32536;DHT22;18974;50.838;4.636;2022-12-20T03:36:32;12.30;99.90
32536;DHT22;18974;50.838;4.636;2022-12-20T03:38:58;12.40;99.90
32536;DHT22;18974;50.838;4.636;2022-12-20T03:41:24;12.30;99.90
32536;DHT22;18974;50.838;4.636;2022-12-20T03:43:50;12.40;99.90
32536;DHT22;18974;50.838;4.636;2022-12-20T03:46:16;12.40;99.90
32536;DHT22;18974;50.838;4.636;2022-12-20T03:48:42;12.30;99.90
32536;DHT22;18974;50.838;4.636;2022-12-20T03:51:08;12.30;99.90
32536;DHT22;18974;50.838;4.636;2022-12-20T03:53:34;12.10;99.90
32536;DHT22;18974;50.838;4.636;2022-12-20T03:55:59;12.20;99.90
32536;DHT22;18974;50.838;4.636;2022-12-20T03:58:25;12.20;99.90
32536;DHT22;18974;50.838;4.636;2022-12-20T04:00:51;12.20;99.90
32536;DHT22;18974;50.838;4.636;2022-12-20T04:03:16;12.10;99.90
32536;DHT22;18974;50.838;4.636;2022-12-20T04:05:42;12.00;99.90
32536;DHT22;18974;50.838;4.636;2022-12-20T04:08:08;11.90;99.90
32536;DHT22;18974;50.838;4.636;2022-12-20T04:10:33;11.90;99.90
32536;DHT22;18974;50.838;4.636;2022-12-20T04:13:22;11.90;99.90
32536;DHT22;18974;50.838;4.636;2022-12-20T04:15:47;11.90;99.90
32536;DHT22;18974;50.838;4.636;2022-12-20T04:18:13;12.00;99.90
32536;DHT22;18974;50.838;4.636;2022-12-20T04:20:39;11.90;99.90
32536;DHT22;18974;50.838;4.636;2022-12-20T04:23:04;12.00;99.90
32536;DHT22;18974;50.838;4.636;2022-12-20T04:25:30;11.90;99.90
32536;DHT22;18974;50.838;4.636;2022-12-20T04:27:55;12.00;99.90
32536;DHT22;18974;50.838;4.636;2022-12-20T04:30:21;12.10;99.90
32536;DHT22;18974;50.838;4.636;2022-12-20T04:32:47;12.00;99.90
32536;DHT22;18974;50.838;4.636;2022-12-20T04:35:12;12.00;99.90
32536;DHT22;18974;50.838;4.636;2022-12-20T04:37:38;12.10;99.90
32536;DHT22;18974;50.838;4.636;2022-12-20T04:40:04;12.10;99.90
32536;DHT22;18974;50.838;4.636;2022-12-20T04:42:30;12.20;99.90
32536;DHT22;18974;50.838;4.636;2022-12-20T04:44:56;12.10;99.90
32536;DHT22;18974;50.838;4.636;2022-12-20T04:47:21;12.20;99.90
32536;DHT22;18974;50.838;4.636;2022-12-20T04:49:47;12.20;99.90
32536;DHT22;18974;50.838;4.636;2022-12-20T04:52:13;12.20;99.90
32536;DHT22;18974;50.838;4.636;2022-12-20T04:54:56;12.20;99.90
32536;DHT22;18974;50.838;4.636;2022-12-20T04:57:22;12.10;99.90
32536;DHT22;18974;50.838;4.636;2022-12-20T04:59:48;12.10;99.90
32536;DHT22;18974;50.838;4.636;2022-12-20T05:02:13;12.00;99.90
32536;DHT22;18974;50.838;4.636;2022-12-20T05:04:39;12.00;99.90
32536;DHT22;18974;50.838;4.636;2022-12-20T05:07:04;12.00;99.90
32536;DHT22;18974;50.838;4.636;2022-12-20T05:09:30;12.00;99.90
32536;DHT22;18974;50.838;4.636;2022-12-20T05:11:56;12.10;99.90
32536;DHT22;18974;50.838;4.636;2022-12-20T05:14:21;12.10;99.90
32536;DHT22;18974;50.838;4.636;2022-12-20T05:16:47;12.10;99.90
32536;DHT22;18974;50.838;4.636;2022-12-20T05:19:12;12.10;99.90
32536;DHT22;18974;50.838;4.636;2022-12-20T05:21:38;12.10;99.90
32536;DHT22;18974;50.838;4.636;2022-12-20T05:24:22;12.10;99.90
32536;DHT22;18974;50.838;4.636;2022-12-20T05:27:06;12.10;99.90
32536;DHT22;18974;50.838;4.636;2022-12-20T05:29:31;12.00;99.90
32536;DHT22;18974;50.838;4.636;2022-12-20T05:31:57;12.10;99.90
32536;DHT22;18974;50.838;4.636;2022-12-20T05:34:23;12.10;99.90
32536;DHT22;18974;50.838;4.636;2022-12-20T05:36:49;12.00;99.90
32536;DHT22;18974;50.838;4.636;2022-12-20T05:39:14;12.00;99.90
32536;DHT22;18974;50.838;4.636;2022-12-20T05:41:40;12.10;99.90
32536;DHT22;18974;50.838;4.636;2022-12-20T05:44:06;12.10;99.90
32536;DHT22;18974;50.838;4.636;2022-12-20T05:46:32;12.00;99.90
32536;DHT22;18974;50.838;4.636;2022-12-20T05:48:58;12.00;99.90
32536;DHT22;18974;50.838;4.636;2022-12-20T05:51:24;12.00;99.90
32536;DHT22;18974;50.838;4.636;2022-12-20T05:53:49;12.00;99.90
32536;DHT22;18974;50.838;4.636;2022-12-20T05:56:15;12.00;99.90
32536;DHT22;18974;50.838;4.636;2022-12-20T05:58:41;12.00;99.90
32536;DHT22;18974;50.838;4.636;2022-12-20T06:01:07;12.10;99.90
32536;DHT22;18974;50.838;4.636;2022-12-20T06:03:33;12.00;99.90
32536;DHT22;18974;50.838;4.636;2022-12-20T06:05:59;12.10;99.90
32536;DHT22;18974;50.838;4.636;2022-12-20T06:08:25;12.10;99.90
32536;DHT22;18974;50.838;4.636;2022-12-20T06:10:51;11.90;99.90
32536;DHT22;18974;50.838;4.636;2022-12-20T06:13:17;11.90;99.90
32536;DHT22;18974;50.838;4.636;2022-12-20T06:15:43;11.90;99.90
32536;DHT22;18974;50.838;4.636;2022-12-20T06:18:09;11.90;99.90
32536;DHT22;18974;50.838;4.636;2022-12-20T06:20:35;11.90;99.90
32536;DHT22;18974;50.838;4.636;2022-12-20T06:23:02;11.90;99.90
32536;DHT22;18974;50.838;4.636;2022-12-20T06:25:28;11.90;99.90
32536;DHT22;18974;50.838;4.636;2022-12-20T06:27:53;11.90;99.90
32536;DHT22;18974;50.838;4.636;2022-12-20T06:30:19;11.90;99.90
32536;DHT22;18974;50.838;4.636;2022-12-20T06:32:45;11.90;99.90
32536;DHT22;18974;50.838;4.636;2022-12-20T06:35:11;11.90;99.90
32536;DHT22;18974;50.838;4.636;2022-12-20T06:37:37;12.00;99.90
32536;DHT22;18974;50.838;4.636;2022-12-20T06:40:06;12.00;99.90
32536;DHT22;18974;50.838;4.636;2022-12-20T06:42:32;12.00;99.90
32536;DHT22;18974;50.838;4.636;2022-12-20T06:44:58;12.10;99.90
32536;DHT22;18974;50.838;4.636;2022-12-20T06:47:23;12.20;99.90
32536;DHT22;18974;50.838;4.636;2022-12-20T06:49:49;12.20;99.90
32536;DHT22;18974;50.838;4.636;2022-12-20T06:52:14;12.30;99.90
32536;DHT22;18974;50.838;4.636;2022-12-20T06:54:40;12.30;99.90
32536;DHT22;18974;50.838;4.636;2022-12-20T06:57:06;12.30;99.90
32536;DHT22;18974;50.838;4.636;2022-12-20T06:59:31;12.30;99.90
32536;DHT22;18974;50.838;4.636;2022-12-20T07:01:57;12.40;99.90
32536;DHT22;18974;50.838;4.636;2022-12-20T07:04:23;12.50;99.90
32536;DHT22;18974;50.838;4.636;2022-12-20T07:06:48;12.50;99.90
32536;DHT22;18974;50.838;4.636;2022-12-20T07:09:14;12.50;99.90
32536;DHT22;18974;50.838;4.636;2022-12-20T07:11:40;12.60;99.90
32536;DHT22;18974;50.838;4.636;2022-12-20T07:14:07;12.50;99.90
32536;DHT22;18974;50.838;4.636;2022-12-20T07:16:33;12.40;99.90
32536;DHT22;18974;50.838;4.636;2022-12-20T07:19:00;12.40;99.90
32536;DHT22;18974;50.838;4.636;2022-12-20T07:21:26;12.40;99.90
32536;DHT22;18974;50.838;4.636;2022-12-20T07:23:53;12.40;99.90
32536;DHT22;18974;50.838;4.636;2022-12-20T07:26:19;12.40;99.90
32536;DHT22;18974;50.838;4.636;2022-12-20T07:28:45;12.40;99.90
32536;DHT22;18974;50.838;4.636;2022-12-20T07:31:10;12.50;99.90
32536;DHT22;18974;50.838;4.636;2022-12-20T07:33:36;12.40;99.90
32536;DHT22;18974;50.838;4.636;2022-12-20T07:36:05;12.40;99.90
32536;DHT22;18974;50.838;4.636;2022-12-20T07:38:31;12.40;99.90
32536;DHT22;18974;50.838;4.636;2022-12-20T07:40:57;12.40;99.90
32536;DHT22;18974;50.838;4.636;2022-12-20T07:43:23;12.30;99.90
32536;DHT22;18974;50.838;4.636;2022-12-20T07:45:53;12.20;99.90
32536;DHT22;18974;50.838;4.636;2022-12-20T07:48:20;12.10;99.90
32536;DHT22;18974;50.838;4.636;2022-12-20T07:50:46;11.90;99.90
32536;DHT22;18974;50.838;4.636;2022-12-20T07:53:11;11.80;99.90
32536;DHT22;18974;50.838;4.636;2022-12-20T07:55:37;11.90;99.90
32536;DHT22;18974;50.838;4.636;2022-12-20T07:58:05;11.80;99.90
32536;DHT22;18974;50.838;4.636;2022-12-20T08:00:32;11.80;99.90
32536;DHT22;18974;50.838;4.636;2022-12-20T08:03:19;11.70;99.90
32536;DHT22;18974;50.838;4.636;2022-12-20T08:05:51;11.70;99.90
32536;DHT22;18974;50.838;4.636;2022-12-20T08:08:19;11.60;99.90
32536;DHT22;18974;50.838;4.636;2022-12-20T08:10:45;11.60;99.90
32536;DHT22;18974;50.838;4.636;2022-12-20T08:13:11;11.50;99.90
32536;DHT22;18974;50.838;4.636;2022-12-20T08:15:37;11.40;99.90
32536;DHT22;18974;50.838;4.636;2022-12-20T08:18:03;11.40;99.90
32536;DHT22;18974;50.838;4.636;2022-12-20T08:20:30;11.40;99.90
32536;DHT22;18974;50.838;4.636;2022-12-20T08:22:56;11.40;99.90
32536;DHT22;18974;50.838;4.636;2022-12-20T08:25:22;11.50;99.90
32536;DHT22;18974;50.838;4.636;2022-12-20T08:27:48;11.50;99.90
32536;DHT22;18974;50.838;4.636;2022-12-20T08:30:14;11.60;99.90
32536;DHT22;18974;50.838;4.636;2022-12-20T08:32:40;11.60;99.90
32536;DHT22;18974;50.838;4.636;2022-12-20T08:35:06;11.60;99.90
32536;DHT22;18974;50.838;4.636;2022-12-20T08:37:32;11.60;99.90
32536;DHT22;18974;50.838;4.636;2022-12-20T08:39:58;11.70;99.90
32536;DHT22;18974;50.838;4.636;2022-12-20T08:42:25;11.70;99.90
32536;DHT22;18974;50.838;4.636;2022-12-20T08:44:51;11.70;99.90
32536;DHT22;18974;50.838;4.636;2022-12-20T08:47:17;11.70;99.90
32536;DHT22;18974;50.838;4.636;2022-12-20T08:49:42;11.60;99.90
32536;DHT22;18974;50.838;4.636;2022-12-20T08:52:08;11.50;99.90
32536;DHT22;18974;50.838;4.636;2022-12-20T08:54:33;11.70;99.90
32536;DHT22;18974;50.838;4.636;2022-12-20T08:56:59;11.60;99.90
32536;DHT22;18974;50.838;4.636;2022-12-20T08:59:25;11.70;99.90
32536;DHT22;18974;50.838;4.636;2022-12-20T09:01:51;11.70;99.90
32536;DHT22;18974;50.838;4.636;2022-12-20T09:04:18;11.70;99.90
32536;DHT22;18974;50.838;4.636;2022-12-20T09:06:44;11.80;99.90
32536;DHT22;18974;50.838;4.636;2022-12-20T09:09:10;11.80;99.90
32536;DHT22;18974;50.838;4.636;2022-12-20T09:11:35;12.00;99.90
32536;DHT22;18974;50.838;4.636;2022-12-20T09:14:01;12.10;99.90
32536;DHT22;18974;50.838;4.636;2022-12-20T09:16:31;12.10;99.90
32536;DHT22;18974;50.838;4.636;2022-12-20T09:18:59;12.20;99.90
32536;DHT22;18974;50.838;4.636;2022-12-20T09:21:25;12.20;99.90
32536;DHT22;18974;50.838;4.636;2022-12-20T09:23:52;12.20;99.90
32536;DHT22;18974;50.838;4.636;2022-12-20T09:26:19;12.10;99.90
32536;DHT22;18974;50.838;4.636;2022-12-20T09:28:46;12.00;99.90
32536;DHT22;18974;50.838;4.636;2022-12-20T09:31:14;12.00;99.90
32536;DHT22;18974;50.838;4.636;2022-12-20T09:33:41;12.00;99.90
32536;DHT22;18974;50.838;4.636;2022-12-20T09:36:14;12.20;99.90
32536;DHT22;18974;50.838;4.636;2022-12-20T09:38:40;12.20;99.90
32536;DHT22;18974;50.838;4.636;2022-12-20T09:41:07;12.20;99.90
32536;DHT22;18974;50.838;4.636;2022-12-20T09:43:34;12.20;99.90
32536;DHT22;18974;50.838;4.636;2022-12-20T09:46:02;12.40;99.90
32536;DHT22;18974;50.838;4.636;2022-12-20T09:48:31;12.40;99.90
32536;DHT22;18974;50.838;4.636;2022-12-20T09:56:30;12.30;99.90
32536;DHT22;18974;50.838;4.636;2022-12-20T10:01:28;12.10;99.90
32536;DHT22;18974;50.838;4.636;2022-12-20T10:03:56;12.10;99.90
32536;DHT22;18974;50.838;4.636;2022-12-20T10:21:04;11.90;99.90
32536;DHT22;18974;50.838;4.636;2022-12-20T10:26:15;11.80;99.90
32536;DHT22;18974;50.838;4.636;2022-12-20T10:28:41;11.80;99.90
32536;DHT22;18974;50.838;4.636;2022-12-20T10:31:14;11.80;99.90
32536;DHT22;18974;50.838;4.636;2022-12-20T10:33:41;11.70;99.90
32536;DHT22;18974;50.838;4.636;2022-12-20T10:36:26;11.80;99.90
32536;DHT22;18974;50.838;4.636;2022-12-20T10:39:04;11.90;99.90
32536;DHT22;18974;50.838;4.636;2022-12-20T10:41:39;11.90;99.90
32536;DHT22;18974;50.838;4.636;2022-12-20T10:44:26;11.90;99.90
32536;DHT22;18974;50.838;4.636;2022-12-20T10:46:57;11.90;99.90
32536;DHT22;18974;50.838;4.636;2022-12-20T10:49:34;12.00;99.90
32536;DHT22;18974;50.838;4.636;2022-12-20T10:54:39;12.10;99.90
32536;DHT22;18974;50.838;4.636;2022-12-20T10:57:19;12.00;99.90
32536;DHT22;18974;50.838;4.636;2022-12-20T10:59:57;11.90;99.90
32536;DHT22;18974;50.838;4.636;2022-12-20T11:04:58;11.80;99.90
32536;DHT22;18974;50.838;4.636;2022-12-20T11:07:27;11.90;99.90
32536;DHT22;18974;50.838;4.636;2022-12-20T11:09:59;11.80;99.90
32536;DHT22;18974;50.838;4.636;2022-12-20T11:12:25;11.80;99.90
32536;DHT22;18974;50.838;4.636;2022-12-20T11:15:10;11.70;99.90
32536;DHT22;18974;50.838;4.636;2022-12-20T11:17:41;11.70;99.90
32536;DHT22;18974;50.838;4.636;2022-12-20T11:20:26;11.70;99.90
32536;DHT22;18974;50.838;4.636;2022-12-20T11:31:33;11.60;99.90
32536;DHT22;18974;50.838;4.636;2022-12-20T11:39:52;11.80;99.90
32536;DHT22;18974;50.838;4.636;2022-12-20T11:45:36;11.80;99.90
32536;DHT22;18974;50.838;4.636;2022-12-20T11:48:25;11.70;99.90
32536;DHT22;18974;50.838;4.636;2022-12-20T11:54:02;11.70;99.90
32536;DHT22;18974;50.838;4.636;2022-12-20T11:56:50;11.80;99.90
32536;DHT22;18974;50.838;4.636;2022-12-20T12:02:27;11.70;99.90
32536;DHT22;18974;50.838;4.636;2022-12-20T12:05:04;11.70;99.90
32536;DHT22;18974;50.838;4.636;2022-12-20T12:07:35;11.70;99.90
32536;DHT22;18974;50.838;4.636;2022-12-20T12:10:21;11.70;99.90
32536;DHT22;18974;50.838;4.636;2022-12-20T12:12:56;11.70;99.90
32536;DHT22;18974;50.838;4.636;2022-12-20T12:15:27;11.60;99.90
32536;DHT22;18974;50.838;4.636;2022-12-20T12:18:12;11.60;99.90
32536;DHT22;18974;50.838;4.636;2022-12-20T12:26:04;11.40;99.90
32536;DHT22;18974;50.838;4.636;2022-12-20T12:28:30;11.50;99.90
32536;DHT22;18974;50.838;4.636;2022-12-20T12:31:05;11.50;99.90
32536;DHT22;18974;50.838;4.636;2022-12-20T12:33:33;11.40;99.90
32536;DHT22;18974;50.838;4.636;2022-12-20T12:41:33;11.50;99.90
32536;DHT22;18974;50.838;4.636;2022-12-20T12:46:41;11.50;99.90
32536;DHT22;18974;50.838;4.636;2022-12-20T12:49:17;11.40;99.90
32536;DHT22;18974;50.838;4.636;2022-12-20T12:51:53;11.40;99.90
32536;DHT22;18974;50.838;4.636;2022-12-20T12:54:37;11.50;99.90
32536;DHT22;18974;50.838;4.636;2022-12-20T13:10:01;11.40;99.90
32536;DHT22;18974;50.838;4.636;2022-12-20T13:18:16;11.10;99.90
32536;DHT22;18974;50.838;4.636;2022-12-20T13:20:42;11.10;99.90
32536;DHT22;18974;50.838;4.636;2022-12-20T13:23:13;11.20;99.90
32536;DHT22;18974;50.838;4.636;2022-12-20T13:25:49;11.20;99.90
32536;DHT22;18974;50.838;4.636;2022-12-20T13:38:54;11.10;99.90
32536;DHT22;18974;50.838;4.636;2022-12-20T13:41:27;11.10;99.90
32536;DHT22;18974;50.838;4.636;2022-12-20T13:43:57;11.20;99.90
32536;DHT22;18974;50.838;4.636;2022-12-20T13:49:22;11.20;99.90
32536;DHT22;18974;50.838;4.636;2022-12-20T13:52:15;11.20;99.90
32536;DHT22;18974;50.838;4.636;2022-12-20T13:54:48;11.20;99.90
32536;DHT22;18974;50.838;4.636;2022-12-20T13:57:20;11.20;99.90
32536;DHT22;18974;50.838;4.636;2022-12-20T13:59:52;11.20;99.90
32536;DHT22;18974;50.838;4.636;2022-12-20T14:02:22;11.30;99.90
32536;DHT22;18974;50.838;4.636;2022-12-20T14:08:04;11.30;99.90
32536;DHT22;18974;50.838;4.636;2022-12-20T14:10:32;11.30;99.90
32536;DHT22;18974;50.838;4.636;2022-12-20T14:12:59;11.40;99.90
32536;DHT22;18974;50.838;4.636;2022-12-20T14:17:53;11.40;99.90
32536;DHT22;18974;50.838;4.636;2022-12-20T14:20:22;11.30;99.90
32536;DHT22;18974;50.838;4.636;2022-12-20T14:22:55;11.40;99.90
32536;DHT22;18974;50.838;4.636;2022-12-20T14:25:46;11.50;99.90
32536;DHT22;18974;50.838;4.636;2022-12-20T14:28:43;11.40;99.90
32536;DHT22;18974;50.838;4.636;2022-12-20T14:31:27;11.40;99.90
32536;DHT22;18974;50.838;4.636;2022-12-20T14:34:13;11.40;99.90
32536;DHT22;18974;50.838;4.636;2022-12-20T14:36:47;11.40;99.90
32536;DHT22;18974;50.838;4.636;2022-12-20T14:39:31;11.40;99.90
32536;DHT22;18974;50.838;4.636;2022-12-20T14:42:00;11.50;99.90
32536;DHT22;18974;50.838;4.636;2022-12-20T14:44:30;11.40;99.90
32536;DHT22;18974;50.838;4.636;2022-12-20T14:47:20;11.40;99.90
32536;DHT22;18974;50.838;4.636;2022-12-20T14:49:56;11.30;99.90
32536;DHT22;18974;50.838;4.636;2022-12-20T14:52:32;11.40;99.90
32536;DHT22;18974;50.838;4.636;2022-12-20T14:54:59;11.30;99.90
32536;DHT22;18974;50.838;4.636;2022-12-20T15:02:44;11.30;99.90
32536;DHT22;18974;50.838;4.636;2022-12-20T15:08:25;11.40;99.90
32536;DHT22;18974;50.838;4.636;2022-12-20T15:13:39;11.40;99.90
32536;DHT22;18974;50.838;4.636;2022-12-20T15:16:14;11.40;99.90
32536;DHT22;18974;50.838;4.636;2022-12-20T15:18:40;11.40;99.90
32536;DHT22;18974;50.838;4.636;2022-12-20T15:21:14;11.30;99.90
32536;DHT22;18974;50.838;4.636;2022-12-20T15:23:46;11.30;99.90
32536;DHT22;18974;50.838;4.636;2022-12-20T15:26:15;11.20;99.90
32536;DHT22;18974;50.838;4.636;2022-12-20T15:28:41;11.20;99.90
32536;DHT22;18974;50.838;4.636;2022-12-20T15:31:12;11.30;99.90
32536;DHT22;18974;50.838;4.636;2022-12-20T15:33:40;11.20;99.90
32536;DHT22;18974;50.838;4.636;2022-12-20T15:36:21;11.20;99.90
32536;DHT22;18974;50.838;4.636;2022-12-20T15:38:47;11.20;99.90
32536;DHT22;18974;50.838;4.636;2022-12-20T15:41:26;11.20;99.90
32536;DHT22;18974;50.838;4.636;2022-12-20T15:43:58;11.20;99.90
32536;DHT22;18974;50.838;4.636;2022-12-20T15:46:24;11.20;99.90
32536;DHT22;18974;50.838;4.636;2022-12-20T15:48:51;11.20;99.90
32536;DHT22;18974;50.838;4.636;2022-12-20T15:51:30;11.30;99.90
32536;DHT22;18974;50.838;4.636;2022-12-20T15:53:57;11.40;99.90
32536;DHT22;18974;50.838;4.636;2022-12-20T15:56:24;11.30;99.90
32536;DHT22;18974;50.838;4.636;2022-12-20T15:58:50;11.30;99.90
32536;DHT22;18974;50.838;4.636;2022-12-20T16:01:36;11.30;99.90
32536;DHT22;18974;50.838;4.636;2022-12-20T16:04:03;11.30;99.90
32536;DHT22;18974;50.838;4.636;2022-12-20T16:06:30;11.30;99.90
32536;DHT22;18974;50.838;4.636;2022-12-20T16:08:55;11.20;99.90
32536;DHT22;18974;50.838;4.636;2022-12-20T16:11:22;11.30;99.90
32536;DHT22;18974;50.838;4.636;2022-12-20T16:13:49;11.30;99.90
32536;DHT22;18974;50.838;4.636;2022-12-20T16:16:20;11.30;99.90
32536;DHT22;18974;50.838;4.636;2022-12-20T16:18:46;11.30;99.90
32536;DHT22;18974;50.838;4.636;2022-12-20T16:21:43;11.20;99.90
32536;DHT22;18974;50.838;4.636;2022-12-20T16:24:12;11.30;99.90
32536;DHT22;18974;50.838;4.636;2022-12-20T16:26:38;11.40;99.90
32536;DHT22;18974;50.838;4.636;2022-12-20T16:29:03;11.40;99.90
32536;DHT22;18974;50.838;4.636;2022-12-20T16:31:32;11.30;99.90
32536;DHT22;18974;50.838;4.636;2022-12-20T16:33:59;11.30;99.90
32536;DHT22;18974;50.838;4.636;2022-12-20T16:36:26;11.30;99.90
32536;DHT22;18974;50.838;4.636;2022-12-20T16:38:51;11.40;99.90
32536;DHT22;18974;50.838;4.636;2022-12-20T16:41:21;11.40;99.90
32536;DHT22;18974;50.838;4.636;2022-12-20T16:43:49;11.30;99.90
32536;DHT22;18974;50.838;4.636;2022-12-20T16:46:17;11.30;99.90
32536;DHT22;18974;50.838;4.636;2022-12-20T16:48:44;11.30;99.90
32536;DHT22;18974;50.838;4.636;2022-12-20T16:51:29;11.30;99.90
32536;DHT22;18974;50.838;4.636;2022-12-20T16:54:06;11.30;99.90
32536;DHT22;18974;50.838;4.636;2022-12-20T16:56:32;11.30;99.90
32536;DHT22;18974;50.838;4.636;2022-12-20T16:58:58;11.30;99.90
32536;DHT22;18974;50.838;4.636;2022-12-20T17:01:31;11.30;99.90
32536;DHT22;18974;50.838;4.636;2022-12-20T17:03:57;11.30;99.90
32536;DHT22;18974;50.838;4.636;2022-12-20T17:06:23;11.40;99.90
32536;DHT22;18974;50.838;4.636;2022-12-20T17:08:49;11.30;99.90
32536;DHT22;18974;50.838;4.636;2022-12-20T17:11:15;11.30;99.90
32536;DHT22;18974;50.838;4.636;2022-12-20T17:13:43;11.30;99.90
32536;DHT22;18974;50.838;4.636;2022-12-20T17:16:13;11.30;99.90
32536;DHT22;18974;50.838;4.636;2022-12-20T17:18:44;11.30;99.90
32536;DHT22;18974;50.838;4.636;2022-12-20T17:21:28;11.20;99.90
32536;DHT22;18974;50.838;4.636;2022-12-20T17:23:57;11.30;99.90
32536;DHT22;18974;50.838;4.636;2022-12-20T17:26:25;11.30;99.90
32536;DHT22;18974;50.838;4.636;2022-12-20T17:28:52;11.30;99.90
32536;DHT22;18974;50.838;4.636;2022-12-20T17:31:28;11.30;99.90
32536;DHT22;18974;50.838;4.636;2022-12-20T17:33:55;11.40;99.90
32536;DHT22;18974;50.838;4.636;2022-12-20T17:36:21;11.30;99.90
32536;DHT22;18974;50.838;4.636;2022-12-20T17:38:47;11.30;99.90
32536;DHT22;18974;50.838;4.636;2022-12-20T17:41:30;11.30;99.90
32536;DHT22;18974;50.838;4.636;2022-12-20T17:43:59;11.30;99.90
32536;DHT22;18974;50.838;4.636;2022-12-20T17:46:25;11.30;99.90
32536;DHT22;18974;50.838;4.636;2022-12-20T17:48:51;11.40;99.90